createdAt,value
2017-12-27T00:00:54.083Z,0
2017-12-27T00:01:55.486Z,0
2017-12-27T00:02:56.880Z,0
2017-12-27T00:03:58.302Z,0
2017-12-27T00:04:59.702Z,0
2017-12-27T00:06:01.106Z,0
2017-12-27T00:07:02.524Z,0
2017-12-27T00:08:03.960Z,0
2017-12-27T00:09:05.403Z,0
2017-12-27T00:10:06.807Z,0
2017-12-27T00:11:08.282Z,0
2017-12-27T00:12:09.684Z,0
2017-12-27T00:13:11.084Z,0
2017-12-27T00:14:12.499Z,0
2017-12-27T00:15:13.906Z,0
2017-12-27T00:16:15.296Z,0
2017-12-27T00:17:16.732Z,0
2017-12-27T00:18:18.113Z,0
2017-12-27T00:19:19.603Z,0
2017-12-27T00:20:20.998Z,0
2017-12-27T00:21:22.480Z,0
2017-12-27T00:22:23.880Z,0
2017-12-27T00:23:25.277Z,0
2017-12-27T00:24:26.699Z,0
2017-12-27T00:25:28.097Z,0
2017-12-27T00:26:29.502Z,0
2017-12-27T00:27:30.920Z,0
2017-12-27T00:28:32.326Z,0
2017-12-27T00:29:33.717Z,0
2017-12-27T00:30:35.136Z,0
2017-12-27T00:31:36.538Z,0
2017-12-27T00:32:37.936Z,0
2017-12-27T00:33:39.362Z,0
2017-12-27T00:34:40.771Z,0
2017-12-27T00:35:42.167Z,0
2017-12-27T00:36:43.678Z,0
2017-12-27T00:37:45.079Z,0
2017-12-27T00:38:46.477Z,0
2017-12-27T00:39:47.895Z,0
2017-12-27T00:40:49.299Z,0
2017-12-27T00:41:50.696Z,0
2017-12-27T00:42:52.120Z,0
2017-12-27T00:43:53.525Z,0
2017-12-27T00:44:55.002Z,0
2017-12-27T00:45:56.393Z,0
2017-12-27T00:46:57.876Z,0
2017-12-27T00:47:59.274Z,0
2017-12-27T00:49:00.691Z,0
2017-12-27T00:50:02.197Z,0
2017-12-27T00:51:03.595Z,0
2017-12-27T00:52:04.993Z,0
2017-12-27T00:53:06.418Z,0
2017-12-27T00:54:07.814Z,0
2017-12-27T00:55:09.230Z,0
2017-12-27T00:56:10.737Z,0
2017-12-27T00:57:12.137Z,0
2017-12-27T00:58:13.544Z,0
2017-12-27T00:59:14.957Z,0
2017-12-27T01:00:16.355Z,0
2017-12-27T01:01:17.754Z,0
2017-12-27T01:02:19.174Z,0
2017-12-27T01:03:20.572Z,0
2017-12-27T01:04:21.975Z,0
2017-12-27T01:05:23.392Z,0
2017-12-27T01:06:24.788Z,0
2017-12-27T01:07:26.203Z,0
2017-12-27T01:08:27.613Z,0
2017-12-27T01:09:29.015Z,0
2017-12-27T01:10:30.416Z,0
2017-12-27T01:11:31.847Z,0
2017-12-27T01:12:33.227Z,0
2017-12-27T01:13:34.626Z,0
2017-12-27T01:14:36.150Z,0
2017-12-27T01:15:37.551Z,0
2017-12-27T01:16:38.952Z,0
2017-12-27T01:17:40.370Z,0
2017-12-27T01:18:41.769Z,0
2017-12-27T01:19:43.206Z,0
2017-12-27T01:20:44.691Z,0
2017-12-27T01:21:46.092Z,0
2017-12-27T01:22:47.958Z,0
2017-12-27T01:23:49.355Z,0
2017-12-27T01:24:50.767Z,0
2017-12-27T01:25:52.235Z,0
2017-12-27T01:26:53.633Z,0
2017-12-27T01:27:55.032Z,0
2017-12-27T01:28:56.526Z,0
2017-12-27T01:29:57.921Z,0
2017-12-27T01:30:59.322Z,0
2017-12-27T01:32:00.740Z,0
2017-12-27T01:33:02.142Z,0
2017-12-27T01:34:03.539Z,0
2017-12-27T01:35:04.989Z,0
2017-12-27T01:36:06.389Z,0
2017-12-27T01:37:07.848Z,0
2017-12-27T01:38:09.238Z,0
2017-12-27T01:39:10.637Z,0
2017-12-27T01:40:12.060Z,0
2017-12-27T01:41:13.458Z,0
2017-12-27T01:42:14.857Z,0
2017-12-27T01:43:16.287Z,0
2017-12-27T01:44:17.684Z,0
2017-12-27T01:45:19.082Z,0
2017-12-27T01:46:20.502Z,0
2017-12-27T01:47:21.904Z,0
2017-12-27T01:48:23.301Z,0
2017-12-27T01:49:24.717Z,0
2017-12-27T01:50:26.116Z,0
2017-12-27T01:51:27.510Z,0
2017-12-27T01:52:28.936Z,0
2017-12-27T01:53:30.337Z,0
2017-12-27T01:54:31.737Z,0
2017-12-27T01:55:33.157Z,0
2017-12-27T01:56:34.555Z,0
2017-12-27T01:57:36.039Z,0
2017-12-27T01:58:37.435Z,0
2017-12-27T01:59:38.835Z,0
2017-12-27T02:00:40.256Z,0
2017-12-27T02:01:41.656Z,0
2017-12-27T02:02:43.054Z,0
2017-12-27T02:03:44.473Z,0
2017-12-27T02:04:45.871Z,0
2017-12-27T02:05:47.269Z,0
2017-12-27T02:06:48.691Z,0
2017-12-27T02:07:50.091Z,0
2017-12-27T02:08:51.522Z,0
2017-12-27T02:09:53.014Z,0
2017-12-27T02:10:54.456Z,0
2017-12-27T02:11:55.895Z,0
2017-12-27T02:12:57.301Z,0
2017-12-27T02:13:58.777Z,0
2017-12-27T02:15:00.176Z,0
2017-12-27T02:16:01.655Z,0
2017-12-27T02:17:03.055Z,0
2017-12-27T02:18:04.538Z,0
2017-12-27T02:19:05.932Z,0
2017-12-27T02:20:07.461Z,0
2017-12-27T02:21:08.823Z,0
2017-12-27T02:22:10.302Z,0
2017-12-27T02:23:12.085Z,0
2017-12-27T02:24:13.489Z,0
2017-12-27T02:25:14.929Z,0
2017-12-27T02:26:16.329Z,0
2017-12-27T02:27:17.722Z,0
2017-12-27T02:28:19.435Z,0
2017-12-27T02:29:20.760Z,0
2017-12-27T02:30:22.163Z,0
2017-12-27T02:31:23.681Z,0
2017-12-27T02:32:25.077Z,0
2017-12-27T02:33:26.942Z,0
2017-12-27T02:34:28.346Z,0
2017-12-27T02:35:29.746Z,0
2017-12-27T02:36:31.178Z,0
2017-12-27T02:37:32.579Z,0
2017-12-27T02:38:33.982Z,0
2017-12-27T02:39:35.400Z,0
2017-12-27T02:40:36.798Z,0
2017-12-27T02:41:38.278Z,0
2017-12-27T02:42:39.690Z,0
2017-12-27T02:43:41.163Z,0
2017-12-27T02:44:42.561Z,0
2017-12-27T02:45:43.971Z,0
2017-12-27T02:46:45.487Z,0
2017-12-27T02:47:46.880Z,0
2017-12-27T02:48:48.283Z,0
2017-12-27T02:49:49.717Z,0
2017-12-27T02:50:51.115Z,0
2017-12-27T02:51:52.515Z,0
2017-12-27T02:52:54.021Z,0
2017-12-27T02:53:55.416Z,0
2017-12-27T02:54:56.816Z,0
2017-12-27T02:55:58.237Z,0
2017-12-27T02:56:59.643Z,0
2017-12-27T02:58:01.121Z,0
2017-12-27T02:59:02.524Z,0
2017-12-27T03:00:03.918Z,0
2017-12-27T03:01:05.339Z,0
2017-12-27T03:02:06.735Z,0
2017-12-27T03:03:08.131Z,0
2017-12-27T03:04:09.558Z,0
2017-12-27T03:05:10.954Z,0
2017-12-27T03:06:12.356Z,0
2017-12-27T03:07:13.777Z,0
2017-12-27T03:08:15.169Z,0
2017-12-27T03:09:16.571Z,0
2017-12-27T03:10:17.995Z,0
2017-12-27T03:11:19.394Z,0
2017-12-27T03:12:20.875Z,0
2017-12-27T03:13:22.267Z,0
2017-12-27T03:14:23.757Z,0
2017-12-27T03:15:25.151Z,0
2017-12-27T03:16:26.550Z,0
2017-12-27T03:17:27.998Z,0
2017-12-27T03:18:29.389Z,0
2017-12-27T03:19:30.791Z,0
2017-12-27T03:20:32.314Z,0
2017-12-27T03:21:33.704Z,0
2017-12-27T03:22:35.100Z,0
2017-12-27T03:23:36.526Z,0
2017-12-27T03:24:37.910Z,0
2017-12-27T03:25:39.317Z,0
2017-12-27T03:26:40.732Z,0
2017-12-27T03:27:42.148Z,0
2017-12-27T03:28:43.613Z,0
2017-12-27T03:29:45.012Z,0
2017-12-27T03:30:46.414Z,0
2017-12-27T03:31:47.831Z,0
2017-12-27T03:32:49.232Z,0
2017-12-27T03:33:50.632Z,0
2017-12-27T03:34:52.052Z,0
2017-12-27T03:35:53.453Z,0
2017-12-27T03:36:54.848Z,0
2017-12-27T03:37:56.272Z,0
2017-12-27T03:38:57.669Z,0
2017-12-27T03:39:59.460Z,0
2017-12-27T03:41:00.899Z,0
2017-12-27T03:42:02.300Z,0
2017-12-27T03:43:03.779Z,0
2017-12-27T03:44:05.176Z,0
2017-12-27T03:45:06.660Z,0
2017-12-27T03:46:08.056Z,0
2017-12-27T03:47:09.457Z,0
2017-12-27T03:48:10.878Z,0
2017-12-27T03:49:12.277Z,0
2017-12-27T03:50:13.711Z,0
2017-12-27T03:51:15.216Z,0
2017-12-27T03:52:16.606Z,0
2017-12-27T03:53:18.081Z,0
2017-12-27T03:54:19.863Z,0
2017-12-27T03:55:21.427Z,0
2017-12-27T03:56:22.769Z,0
2017-12-27T03:57:24.249Z,0
2017-12-27T03:58:25.653Z,0
2017-12-27T03:59:27.132Z,0
2017-12-27T04:00:28.530Z,0
2017-12-27T04:01:30.014Z,0
2017-12-27T04:02:31.410Z,0
2017-12-27T04:03:32.895Z,0
2017-12-27T04:04:34.297Z,0
2017-12-27T04:05:35.775Z,0
2017-12-27T04:06:37.185Z,0
2017-12-27T04:07:38.656Z,0
2017-12-27T04:08:40.054Z,0
2017-12-27T04:09:41.554Z,0
2017-12-27T04:10:42.983Z,0
2017-12-27T04:11:44.394Z,0
2017-12-27T04:12:45.858Z,0
2017-12-27T04:13:47.256Z,0
2017-12-27T04:14:48.663Z,0
2017-12-27T04:15:50.178Z,0
2017-12-27T04:16:51.579Z,0
2017-12-27T04:17:53.072Z,0
2017-12-27T04:18:54.471Z,0
2017-12-27T04:19:55.953Z,0
2017-12-27T04:20:57.346Z,0
2017-12-27T04:21:58.744Z,0
2017-12-27T04:23:00.157Z,0
2017-12-27T04:24:01.557Z,0
2017-12-27T04:25:02.967Z,0
2017-12-27T04:26:04.378Z,0
2017-12-27T04:27:05.774Z,0
2017-12-27T04:28:07.259Z,0
2017-12-27T04:29:08.658Z,0
2017-12-27T04:30:10.142Z,0
2017-12-27T04:31:11.540Z,0
2017-12-27T04:32:12.942Z,0
2017-12-27T04:33:14.360Z,0
2017-12-27T04:34:15.758Z,0
2017-12-27T04:35:17.155Z,0
2017-12-27T04:36:18.577Z,0
2017-12-27T04:37:19.977Z,0
2017-12-27T04:38:21.456Z,0
2017-12-27T04:39:22.855Z,0
2017-12-27T04:40:24.338Z,0
2017-12-27T04:41:25.736Z,0
2017-12-27T04:42:27.219Z,0
2017-12-27T04:43:28.647Z,0
2017-12-27T04:44:30.105Z,0
2017-12-27T04:45:31.503Z,0
2017-12-27T04:46:32.985Z,0
2017-12-27T04:47:34.381Z,0
2017-12-27T04:48:35.861Z,0
2017-12-27T04:49:37.258Z,0
2017-12-27T04:50:38.740Z,0
2017-12-27T04:51:40.172Z,0
2017-12-27T04:52:41.576Z,0
2017-12-27T04:53:43.066Z,0
2017-12-27T04:54:44.462Z,0
2017-12-27T04:55:45.855Z,0
2017-12-27T04:56:47.295Z,0
2017-12-27T04:57:48.704Z,0
2017-12-27T04:58:50.096Z,0
2017-12-27T04:59:51.606Z,0
2017-12-27T05:00:53.001Z,0
2017-12-27T05:01:54.415Z,0
2017-12-27T05:02:55.880Z,0
2017-12-27T05:03:57.279Z,0
2017-12-27T05:04:58.704Z,0
2017-12-27T05:06:00.112Z,0
2017-12-27T05:07:01.504Z,0
2017-12-27T05:08:02.924Z,0
2017-12-27T05:09:04.321Z,0
2017-12-27T05:10:05.724Z,0
2017-12-27T05:11:07.142Z,0
2017-12-27T05:12:08.540Z,0
2017-12-27T05:13:09.937Z,0
2017-12-27T05:14:11.362Z,0
2017-12-27T05:15:12.759Z,0
2017-12-27T05:16:14.160Z,0
2017-12-27T05:17:15.579Z,0
2017-12-27T05:18:17.002Z,0
2017-12-27T05:19:18.487Z,0
2017-12-27T05:20:19.884Z,0
2017-12-27T05:21:21.342Z,0
2017-12-27T05:22:22.753Z,0
2017-12-27T05:23:24.220Z,0
2017-12-27T05:24:25.617Z,0
2017-12-27T05:25:27.100Z,0
2017-12-27T05:26:28.500Z,0
2017-12-27T05:27:30.047Z,0
2017-12-27T05:28:31.448Z,0
2017-12-27T05:29:32.863Z,0
2017-12-27T05:30:34.262Z,0
2017-12-27T05:31:35.746Z,0
2017-12-27T05:32:37.144Z,0
2017-12-27T05:33:38.625Z,0
2017-12-27T05:34:40.025Z,0
2017-12-27T05:35:41.504Z,0
2017-12-27T05:36:42.909Z,0
2017-12-27T05:37:44.301Z,0
2017-12-27T05:38:45.720Z,0
2017-12-27T05:39:47.146Z,0
2017-12-27T05:40:48.593Z,0
2017-12-27T05:41:50.045Z,0
2017-12-27T05:42:51.456Z,0
2017-12-27T05:43:52.869Z,0
2017-12-27T05:44:54.365Z,0
2017-12-27T05:45:55.790Z,0
2017-12-27T05:46:57.210Z,0
2017-12-27T05:47:58.705Z,0
2017-12-27T05:49:00.105Z,0
2017-12-27T05:50:01.510Z,0
2017-12-27T05:51:03.007Z,0
2017-12-27T05:52:04.407Z,0
2017-12-27T05:53:05.801Z,0
2017-12-27T05:54:07.224Z,0
2017-12-27T05:55:08.632Z,0
2017-12-27T05:56:10.051Z,0
2017-12-27T05:57:11.547Z,0
2017-12-27T05:58:12.950Z,0
2017-12-27T05:59:14.387Z,0
2017-12-27T06:00:15.881Z,0
2017-12-27T06:01:17.273Z,0
2017-12-27T06:02:18.694Z,0
2017-12-27T06:03:20.195Z,0
2017-12-27T06:04:21.598Z,0
2017-12-27T06:05:23.077Z,0
2017-12-27T06:06:24.479Z,0
2017-12-27T06:07:25.954Z,0
2017-12-27T06:08:27.357Z,0
2017-12-27T06:09:28.831Z,0
2017-12-27T06:10:30.239Z,0
2017-12-27T06:11:31.714Z,0
2017-12-27T06:12:33.107Z,0
2017-12-27T06:13:34.514Z,0
2017-12-27T06:14:35.947Z,0
2017-12-27T06:15:37.345Z,0
2017-12-27T06:16:38.775Z,0
2017-12-27T06:17:40.273Z,0
2017-12-27T06:18:41.699Z,0
2017-12-27T06:19:43.173Z,0
2017-12-27T06:20:44.572Z,0
2017-12-27T06:21:46.046Z,0
2017-12-27T06:22:47.444Z,0
2017-12-27T06:23:48.847Z,0
2017-12-27T06:24:50.352Z,0
2017-12-27T06:25:51.750Z,0
2017-12-27T06:26:53.156Z,0
2017-12-27T06:27:54.655Z,0
2017-12-27T06:28:56.081Z,0
2017-12-27T06:29:57.559Z,0
2017-12-27T06:30:58.963Z,0
2017-12-27T06:32:00.419Z,0
2017-12-27T06:33:01.812Z,0
2017-12-27T06:34:03.310Z,0
2017-12-27T06:35:04.706Z,0
2017-12-27T06:36:06.182Z,0
2017-12-27T06:37:07.627Z,0
2017-12-27T06:38:08.984Z,0
2017-12-27T06:39:10.398Z,0
2017-12-27T06:40:11.813Z,0
2017-12-27T06:41:13.213Z,0
2017-12-27T06:42:14.720Z,0
2017-12-27T06:43:16.116Z,0
2017-12-27T06:44:17.522Z,0
2017-12-27T06:45:18.941Z,0
2017-12-27T06:46:20.341Z,0
2017-12-27T06:47:21.772Z,0
2017-12-27T06:48:23.181Z,0
2017-12-27T06:49:24.581Z,0
2017-12-27T06:50:26.041Z,0
2017-12-27T06:51:27.453Z,0
2017-12-27T06:52:28.918Z,0
2017-12-27T06:53:30.701Z,0
2017-12-27T06:54:32.209Z,0
2017-12-27T06:55:33.605Z,0
2017-12-27T06:56:35.096Z,0
2017-12-27T06:57:36.493Z,0
2017-12-27T06:58:37.939Z,0
2017-12-27T06:59:39.410Z,0
2017-12-27T07:00:40.812Z,0
2017-12-27T07:01:42.221Z,0
2017-12-27T07:02:43.733Z,0
2017-12-27T07:03:45.126Z,0
2017-12-27T07:04:46.613Z,0
2017-12-27T07:05:48.061Z,0
2017-12-27T07:06:49.493Z,0
2017-12-27T07:07:50.957Z,0
2017-12-27T07:08:52.355Z,0
2017-12-27T07:09:53.816Z,0
2017-12-27T07:10:55.228Z,0
2017-12-27T07:11:56.627Z,0
2017-12-27T07:12:58.135Z,0
2017-12-27T07:13:59.571Z,0
2017-12-27T07:15:01.034Z,0
2017-12-27T07:16:02.441Z,0
2017-12-27T07:17:03.897Z,0
2017-12-27T07:18:05.297Z,0
2017-12-27T07:19:06.694Z,0
2017-12-27T07:20:08.115Z,0
2017-12-27T07:21:09.510Z,0
2017-12-27T07:22:10.919Z,0
2017-12-27T07:23:12.337Z,0
2017-12-27T07:24:13.742Z,0
2017-12-27T07:25:15.216Z,0
2017-12-27T07:26:16.614Z,0
2017-12-27T07:27:18.112Z,0
2017-12-27T07:28:19.512Z,0
2017-12-27T07:29:20.930Z,0
2017-12-27T07:30:22.418Z,0
2017-12-27T07:31:23.816Z,0
2017-12-27T07:32:25.305Z,0
2017-12-27T07:33:26.700Z,0
2017-12-27T07:34:28.101Z,0
2017-12-27T07:35:29.517Z,0
2017-12-27T07:36:30.918Z,0
2017-12-27T07:37:32.317Z,0
2017-12-27T07:38:33.741Z,0
2017-12-27T07:39:35.167Z,0
2017-12-27T07:40:36.547Z,0
2017-12-27T07:41:38.065Z,0
2017-12-27T07:42:39.479Z,0
2017-12-27T07:43:40.887Z,0
2017-12-27T07:44:42.287Z,5
2017-12-27T07:45:43.688Z,5
2017-12-27T07:46:45.159Z,5
2017-12-27T07:47:46.567Z,5
2017-12-27T07:48:47.966Z,5
2017-12-27T07:49:49.484Z,5
2017-12-27T07:50:51.267Z,5
2017-12-27T07:51:52.671Z,5
2017-12-27T07:52:54.109Z,5
2017-12-27T07:53:55.513Z,5
2017-12-27T07:54:56.912Z,10
2017-12-27T07:55:58.332Z,10
2017-12-27T07:56:59.731Z,10
2017-12-27T07:58:01.135Z,10
2017-12-27T07:59:02.652Z,10
2017-12-27T08:00:04.051Z,10
2017-12-27T08:01:05.538Z,10
2017-12-27T08:02:06.943Z,15
2017-12-27T08:03:08.442Z,15
2017-12-27T08:04:09.846Z,15
2017-12-27T08:05:11.252Z,15
2017-12-27T08:06:12.734Z,20
2017-12-27T08:07:14.151Z,20
2017-12-27T08:08:15.554Z,20
2017-12-27T08:09:17.056Z,20
2017-12-27T08:10:18.459Z,20
2017-12-27T08:11:19.937Z,20
2017-12-27T08:12:21.339Z,20
2017-12-27T08:13:22.820Z,25
2017-12-27T08:14:24.225Z,25
2017-12-27T08:15:25.696Z,25
2017-12-27T08:16:27.096Z,25
2017-12-27T08:17:28.580Z,25
2017-12-27T08:18:29.980Z,25
2017-12-27T08:19:31.905Z,25
2017-12-27T08:20:33.307Z,25
2017-12-27T08:21:34.749Z,25
2017-12-27T08:22:36.152Z,25
2017-12-27T08:23:37.629Z,25
2017-12-27T08:24:39.030Z,25
2017-12-27T08:25:40.445Z,25
2017-12-27T08:26:41.957Z,25
2017-12-27T08:27:43.365Z,25
2017-12-27T08:28:44.772Z,25
2017-12-27T08:29:46.272Z,25
2017-12-27T08:30:47.674Z,25
2017-12-27T08:31:49.152Z,25
2017-12-27T08:32:50.547Z,30
2017-12-27T08:33:52.034Z,30
2017-12-27T08:34:53.439Z,30
2017-12-27T08:35:54.843Z,35
2017-12-27T08:36:56.355Z,35
2017-12-27T08:37:57.758Z,40
2017-12-27T08:38:59.159Z,40
2017-12-27T08:40:00.676Z,40
2017-12-27T08:41:02.076Z,45
2017-12-27T08:42:03.559Z,45
2017-12-27T08:43:04.959Z,45
2017-12-27T08:44:06.441Z,45
2017-12-27T08:45:07.842Z,50
2017-12-27T08:46:09.311Z,50
2017-12-27T08:47:10.727Z,50
2017-12-27T08:48:12.199Z,55
2017-12-27T08:49:13.616Z,55
2017-12-27T08:50:15.085Z,60
2017-12-27T08:51:16.486Z,65
2017-12-27T08:52:17.963Z,70
2017-12-27T08:53:19.392Z,70
2017-12-27T08:54:20.844Z,75
2017-12-27T08:55:22.243Z,75
2017-12-27T08:56:23.723Z,70
2017-12-27T08:57:25.129Z,70
2017-12-27T08:58:26.621Z,70
2017-12-27T08:59:28.023Z,70
2017-12-27T09:00:29.485Z,65
2017-12-27T09:01:30.930Z,65
2017-12-27T09:02:32.362Z,65
2017-12-27T09:03:33.760Z,65
2017-12-27T09:04:35.246Z,65
2017-12-27T09:05:36.659Z,65
2017-12-27T09:06:38.059Z,60
2017-12-27T09:07:39.568Z,60
2017-12-27T09:08:40.971Z,55
2017-12-27T09:09:42.376Z,55
2017-12-27T09:10:43.888Z,55
2017-12-27T09:11:45.307Z,55
2017-12-27T09:12:46.772Z,60
2017-12-27T09:13:48.186Z,55
2017-12-27T09:14:49.589Z,55
2017-12-27T09:15:51.469Z,60
2017-12-27T09:16:52.888Z,70
2017-12-27T09:17:54.284Z,75
2017-12-27T09:18:55.726Z,80
2017-12-27T09:19:57.127Z,90
2017-12-27T09:20:58.529Z,105
2017-12-27T09:22:00.046Z,120
2017-12-27T09:23:01.450Z,125
2017-12-27T09:24:02.853Z,130
2017-12-27T09:25:04.352Z,135
2017-12-27T09:26:05.767Z,135
2017-12-27T09:27:07.173Z,135
2017-12-27T09:28:08.686Z,125
2017-12-27T09:29:10.091Z,120
2017-12-27T09:30:11.508Z,120
2017-12-27T09:31:13.003Z,115
2017-12-27T09:32:14.408Z,110
2017-12-27T09:33:15.884Z,105
2017-12-27T09:34:17.285Z,115
2017-12-27T09:35:18.764Z,115
2017-12-27T09:36:20.170Z,110
2017-12-27T09:37:21.645Z,105
2017-12-27T09:38:23.047Z,90
2017-12-27T09:39:24.527Z,75
2017-12-27T09:40:25.935Z,60
2017-12-27T09:41:27.404Z,60
2017-12-27T09:42:28.805Z,60
2017-12-27T09:43:30.295Z,65
2017-12-27T09:44:31.696Z,70
2017-12-27T09:45:33.102Z,70
2017-12-27T09:46:34.608Z,75
2017-12-27T09:47:36.026Z,80
2017-12-27T09:48:37.428Z,85
2017-12-27T09:49:38.930Z,85
2017-12-27T09:50:40.733Z,80
2017-12-27T09:51:42.219Z,75
2017-12-27T09:52:43.622Z,75
2017-12-27T09:53:45.100Z,80
2017-12-27T09:54:46.511Z,75
2017-12-27T09:55:47.911Z,70
2017-12-27T09:56:49.421Z,60
2017-12-27T09:57:50.826Z,60
2017-12-27T09:58:52.228Z,55
2017-12-27T09:59:53.743Z,60
2017-12-27T10:00:55.147Z,70
2017-12-27T10:01:56.553Z,70
2017-12-27T10:02:58.064Z,75
2017-12-27T10:03:59.464Z,75
2017-12-27T10:05:00.869Z,80
2017-12-27T10:06:02.433Z,85
2017-12-27T10:07:03.837Z,90
2017-12-27T10:08:05.245Z,85
2017-12-27T10:09:06.707Z,85
2017-12-27T10:10:08.111Z,75
2017-12-27T10:11:09.514Z,75
2017-12-27T10:12:11.406Z,65
2017-12-27T10:13:12.811Z,60
2017-12-27T10:14:14.213Z,60
2017-12-27T10:15:15.684Z,65
2017-12-27T10:16:17.090Z,75
2017-12-27T10:17:18.500Z,90
2017-12-27T10:18:19.977Z,95
2017-12-27T10:19:21.382Z,100
2017-12-27T10:20:22.784Z,95
2017-12-27T10:21:24.300Z,85
2017-12-27T10:22:25.703Z,80
2017-12-27T10:23:27.179Z,80
2017-12-27T10:24:28.583Z,75
2017-12-27T10:25:30.059Z,70
2017-12-27T10:26:31.463Z,70
2017-12-27T10:27:32.947Z,60
2017-12-27T10:28:34.350Z,65
2017-12-27T10:29:35.822Z,65
2017-12-27T10:30:37.250Z,60
2017-12-27T10:31:38.653Z,60
2017-12-27T10:32:40.146Z,65
2017-12-27T10:33:41.545Z,65
2017-12-27T10:34:42.948Z,75
2017-12-27T10:35:44.465Z,80
2017-12-27T10:36:45.873Z,90
2017-12-27T10:37:47.290Z,90
2017-12-27T10:38:48.796Z,80
2017-12-27T10:39:50.198Z,85
2017-12-27T10:40:51.602Z,95
2017-12-27T10:41:53.019Z,95
2017-12-27T10:42:54.425Z,90
2017-12-27T10:43:55.885Z,80
2017-12-27T10:44:57.291Z,90
2017-12-27T10:45:58.765Z,90
2017-12-27T10:47:00.167Z,80
2017-12-27T10:48:01.574Z,80
2017-12-27T10:49:03.085Z,70
2017-12-27T10:50:04.530Z,65
2017-12-27T10:51:05.923Z,60
2017-12-27T10:52:07.406Z,70
2017-12-27T10:53:08.812Z,80
2017-12-27T10:54:10.292Z,85
2017-12-27T10:55:11.695Z,85
2017-12-27T10:56:13.101Z,80
2017-12-27T10:57:14.612Z,80
2017-12-27T10:58:16.017Z,90
2017-12-27T10:59:17.421Z,90
2017-12-27T11:00:18.932Z,90
2017-12-27T11:01:20.352Z,90
2017-12-27T11:02:21.755Z,95
2017-12-27T11:03:23.251Z,100
2017-12-27T11:04:24.660Z,100
2017-12-27T11:05:26.154Z,95
2017-12-27T11:06:27.578Z,95
2017-12-27T11:07:29.008Z,100
2017-12-27T11:08:30.455Z,95
2017-12-27T11:09:31.858Z,100
2017-12-27T11:10:33.334Z,95
2017-12-27T11:11:35.248Z,90
2017-12-27T11:12:36.728Z,95
2017-12-27T11:13:38.133Z,105
2017-12-27T11:14:39.608Z,110
2017-12-27T11:15:41.015Z,110
2017-12-27T11:16:42.411Z,110
2017-12-27T11:17:43.928Z,110
2017-12-27T11:18:45.361Z,110
2017-12-27T11:19:46.765Z,110
2017-12-27T11:20:48.251Z,110
2017-12-27T11:21:49.656Z,110
2017-12-27T11:22:51.059Z,105
2017-12-27T11:23:52.572Z,100
2017-12-27T11:24:53.977Z,95
2017-12-27T11:25:55.383Z,85
2017-12-27T11:26:56.893Z,75
2017-12-27T11:27:58.298Z,75
2017-12-27T11:28:59.703Z,80
2017-12-27T11:30:01.214Z,80
2017-12-27T11:31:02.630Z,85
2017-12-27T11:32:04.035Z,85
2017-12-27T11:33:05.534Z,80
2017-12-27T11:34:06.951Z,90
2017-12-27T11:35:08.415Z,95
2017-12-27T11:36:09.819Z,100
2017-12-27T11:37:11.219Z,95
2017-12-27T11:38:12.736Z,95
2017-12-27T11:39:14.144Z,100
2017-12-27T11:40:15.548Z,110
2017-12-27T11:41:17.059Z,115
2017-12-27T11:42:18.469Z,110
2017-12-27T11:43:19.872Z,105
2017-12-27T11:44:21.380Z,100
2017-12-27T11:45:22.787Z,105
2017-12-27T11:46:24.578Z,110
2017-12-27T11:47:26.009Z,110
2017-12-27T11:48:27.417Z,115
2017-12-27T11:49:28.890Z,115
2017-12-27T11:50:30.303Z,115
2017-12-27T11:51:31.770Z,115
2017-12-27T11:52:33.176Z,120
2017-12-27T11:53:34.653Z,120
2017-12-27T11:54:36.060Z,110
2017-12-27T11:55:37.534Z,115
2017-12-27T11:56:38.956Z,110
2017-12-27T11:57:40.365Z,110
2017-12-27T11:58:41.906Z,110
2017-12-27T11:59:43.429Z,120
2017-12-27T12:00:44.839Z,120
2017-12-27T12:01:46.276Z,120
2017-12-27T12:02:47.680Z,115
2017-12-27T12:03:49.158Z,115
2017-12-27T12:04:50.561Z,110
2017-12-27T12:05:52.038Z,110
2017-12-27T12:06:53.443Z,105
2017-12-27T12:07:54.918Z,100
2017-12-27T12:08:56.327Z,100
2017-12-27T12:09:57.818Z,110
2017-12-27T12:10:59.224Z,95
2017-12-27T12:12:00.653Z,75
2017-12-27T12:13:02.120Z,65
2017-12-27T12:14:03.542Z,60
2017-12-27T12:15:04.944Z,60
2017-12-27T12:16:06.447Z,50
2017-12-27T12:17:07.859Z,50
2017-12-27T12:18:09.257Z,60
2017-12-27T12:19:10.762Z,60
2017-12-27T12:20:12.164Z,60
2017-12-27T12:21:13.646Z,60
2017-12-27T12:22:15.051Z,60
2017-12-27T12:23:16.524Z,65
2017-12-27T12:24:17.927Z,70
2017-12-27T12:25:19.405Z,70
2017-12-27T12:26:20.823Z,85
2017-12-27T12:27:22.231Z,90
2017-12-27T12:28:23.726Z,95
2017-12-27T12:29:25.137Z,100
2017-12-27T12:30:26.536Z,105
2017-12-27T12:31:28.427Z,110
2017-12-27T12:32:29.842Z,110
2017-12-27T12:33:31.246Z,110
2017-12-27T12:34:32.675Z,105
2017-12-27T12:35:34.098Z,110
2017-12-27T12:36:35.503Z,125
2017-12-27T12:37:36.997Z,135
2017-12-27T12:38:38.415Z,135
2017-12-27T12:39:40.240Z,125
2017-12-27T12:40:41.729Z,115
2017-12-27T12:41:43.133Z,105
2017-12-27T12:42:44.534Z,100
2017-12-27T12:43:46.063Z,90
2017-12-27T12:44:47.468Z,90
2017-12-27T12:45:49.080Z,90
2017-12-27T12:46:50.506Z,80
2017-12-27T12:47:51.907Z,75
2017-12-27T12:48:53.353Z,65
2017-12-27T12:49:54.755Z,60
2017-12-27T12:50:56.161Z,65
2017-12-27T12:51:57.675Z,65
2017-12-27T12:52:59.077Z,70
2017-12-27T12:54:00.552Z,75
2017-12-27T12:55:01.954Z,80
2017-12-27T12:56:03.443Z,80
2017-12-27T12:57:04.886Z,75
2017-12-27T12:58:06.293Z,75
2017-12-27T12:59:07.761Z,75
2017-12-27T13:00:09.163Z,75
2017-12-27T13:01:10.566Z,75
2017-12-27T13:02:12.079Z,85
2017-12-27T13:03:13.483Z,85
2017-12-27T13:04:14.956Z,80
2017-12-27T13:05:16.348Z,80
2017-12-27T13:06:17.861Z,75
2017-12-27T13:07:19.239Z,70
2017-12-27T13:08:20.749Z,65
2017-12-27T13:09:22.152Z,60
2017-12-27T13:10:23.600Z,60
2017-12-27T13:11:25.008Z,60
2017-12-27T13:12:26.480Z,50
2017-12-27T13:13:27.886Z,45
2017-12-27T13:14:29.360Z,45
2017-12-27T13:15:31.144Z,45
2017-12-27T13:16:32.655Z,45
2017-12-27T13:17:34.051Z,55
2017-12-27T13:18:35.469Z,50
2017-12-27T13:19:36.977Z,45
2017-12-27T13:20:38.407Z,45
2017-12-27T13:21:39.811Z,50
2017-12-27T13:22:41.302Z,50
2017-12-27T13:23:42.692Z,55
2017-12-27T13:24:44.190Z,60
2017-12-27T13:25:45.596Z,70
2017-12-27T13:26:47.056Z,70
2017-12-27T13:27:48.478Z,70
2017-12-27T13:28:49.881Z,85
2017-12-27T13:29:51.377Z,95
2017-12-27T13:30:52.780Z,95
2017-12-27T13:31:54.181Z,90
2017-12-27T13:32:55.699Z,100
2017-12-27T13:33:57.105Z,100
2017-12-27T13:34:58.601Z,100
2017-12-27T13:36:00.139Z,100
2017-12-27T13:37:01.541Z,100
2017-12-27T13:38:02.940Z,100
2017-12-27T13:39:04.445Z,105
2017-12-27T13:40:05.852Z,110
2017-12-27T13:41:07.262Z,110
2017-12-27T13:42:08.867Z,105
2017-12-27T13:43:10.313Z,100
2017-12-27T13:44:11.716Z,95
2017-12-27T13:45:13.190Z,90
2017-12-27T13:46:14.595Z,95
2017-12-27T13:47:16.074Z,90
2017-12-27T13:48:17.476Z,85
2017-12-27T13:49:18.950Z,80
2017-12-27T13:50:20.368Z,80
2017-12-27T13:51:21.830Z,80
2017-12-27T13:52:23.312Z,80
2017-12-27T13:53:24.964Z,80
2017-12-27T13:54:26.368Z,80
2017-12-27T13:55:27.798Z,80
2017-12-27T13:56:29.201Z,75
2017-12-27T13:57:30.676Z,70
2017-12-27T13:58:32.084Z,70
2017-12-27T13:59:34.597Z,75
2017-12-27T14:00:36.021Z,80
2017-12-27T14:01:37.450Z,75
2017-12-27T14:02:38.885Z,70
2017-12-27T14:03:40.385Z,75
2017-12-27T14:04:41.857Z,75
2017-12-27T14:05:43.327Z,70
2017-12-27T14:06:44.916Z,70
2017-12-27T14:07:46.414Z,70
2017-12-27T14:08:47.819Z,75
2017-12-27T14:09:49.293Z,75
2017-12-27T14:10:50.747Z,70
2017-12-27T14:11:52.181Z,65
2017-12-27T14:12:53.587Z,60
2017-12-27T14:13:54.987Z,55
2017-12-27T14:14:56.501Z,55
2017-12-27T14:15:57.919Z,55
2017-12-27T14:16:59.375Z,55
2017-12-27T14:18:00.817Z,50
2017-12-27T14:19:02.304Z,50
2017-12-27T14:20:03.798Z,45
2017-12-27T14:21:05.204Z,40
2017-12-27T14:22:06.684Z,35
2017-12-27T14:23:08.094Z,35
2017-12-27T14:24:09.567Z,35
2017-12-27T14:25:10.975Z,35
2017-12-27T14:26:12.446Z,30
2017-12-27T14:27:13.853Z,25
2017-12-27T14:28:15.325Z,30
2017-12-27T14:29:16.730Z,30
2017-12-27T14:30:18.428Z,30
2017-12-27T14:31:20.251Z,30
2017-12-27T14:32:21.700Z,25
2017-12-27T14:33:23.154Z,25
2017-12-27T14:34:24.556Z,25
2017-12-27T14:35:26.023Z,30
2017-12-27T14:36:27.424Z,30
2017-12-27T14:37:28.827Z,30
2017-12-27T14:38:30.343Z,30
2017-12-27T14:39:31.747Z,25
2017-12-27T14:40:33.223Z,25
2017-12-27T14:41:34.712Z,25
2017-12-27T14:42:36.204Z,30
2017-12-27T14:43:37.608Z,30
2017-12-27T14:44:39.091Z,25
2017-12-27T14:45:40.704Z,25
2017-12-27T14:46:42.177Z,25
2017-12-27T14:47:43.615Z,20
2017-12-27T14:48:45.069Z,20
2017-12-27T14:49:46.488Z,20